sensor_id;sensor_type;location;lat;lon;timestamp;P1;durP1;ratioP1;P2;durP2;ratioP2
31920;SDS011;66485;52.128;4.436;2023-06-14T00:02:00;2.30;;;1.70;;
31920;SDS011;66485;52.128;4.436;2023-06-14T00:04:26;2.58;;;1.92;;
31920;SDS011;66485;52.128;4.436;2023-06-14T00:06:51;3.27;;;1.87;;
31920;SDS011;66485;52.128;4.436;2023-06-14T00:09:17;3.53;;;1.80;;
31920;SDS011;66485;52.128;4.436;2023-06-14T00:11:43;2.50;;;1.90;;
31920;SDS011;66485;52.128;4.436;2023-06-14T00:14:08;3.25;;;1.75;;
31920;SDS011;66485;52.128;4.436;2023-06-14T00:16:34;3.38;;;2.05;;
31920;SDS011;66485;52.128;4.436;2023-06-14T00:19:03;2.80;;;1.80;;
31920;SDS011;66485;52.128;4.436;2023-06-14T00:21:29;2.85;;;2.00;;
31920;SDS011;66485;52.128;4.436;2023-06-14T00:23:55;2.58;;;1.60;;
31920;SDS011;66485;52.128;4.436;2023-06-14T00:26:22;2.78;;;1.98;;
31920;SDS011;66485;52.128;4.436;2023-06-14T00:28:47;3.53;;;2.15;;
31920;SDS011;66485;52.128;4.436;2023-06-14T00:31:13;2.83;;;1.90;;
31920;SDS011;66485;52.128;4.436;2023-06-14T00:33:38;2.80;;;1.93;;
31920;SDS011;66485;52.128;4.436;2023-06-14T00:36:03;2.55;;;1.65;;
31920;SDS011;66485;52.128;4.436;2023-06-14T00:38:29;2.63;;;2.00;;
31920;SDS011;66485;52.128;4.436;2023-06-14T00:40:54;4.90;;;2.07;;
31920;SDS011;66485;52.128;4.436;2023-06-14T00:43:19;3.07;;;1.83;;
31920;SDS011;66485;52.128;4.436;2023-06-14T00:45:45;2.90;;;1.90;;
31920;SDS011;66485;52.128;4.436;2023-06-14T00:48:10;2.85;;;1.98;;
31920;SDS011;66485;52.128;4.436;2023-06-14T00:50:36;3.47;;;2.03;;
31920;SDS011;66485;52.128;4.436;2023-06-14T00:53:03;3.63;;;2.10;;
31920;SDS011;66485;52.128;4.436;2023-06-14T00:55:29;2.80;;;1.80;;
31920;SDS011;66485;52.128;4.436;2023-06-14T00:57:55;2.40;;;1.55;;
31920;SDS011;66485;52.128;4.436;2023-06-14T01:00:21;4.00;;;1.95;;
31920;SDS011;66485;52.128;4.436;2023-06-14T01:02:47;2.80;;;1.90;;
31920;SDS011;66485;52.128;4.436;2023-06-14T01:05:12;5.22;;;2.03;;
31920;SDS011;66485;52.128;4.436;2023-06-14T01:15:58;3.28;;;2.13;;
31920;SDS011;66485;52.128;4.436;2023-06-14T01:18:24;2.83;;;1.80;;
31920;SDS011;66485;52.128;4.436;2023-06-14T01:20:51;2.60;;;1.88;;
31920;SDS011;66485;52.128;4.436;2023-06-14T01:23:20;2.70;;;1.60;;
31920;SDS011;66485;52.128;4.436;2023-06-14T01:25:47;2.60;;;1.90;;
31920;SDS011;66485;52.128;4.436;2023-06-14T01:28:17;2.78;;;1.90;;
31920;SDS011;66485;52.128;4.436;2023-06-14T01:30:44;3.15;;;1.90;;
31920;SDS011;66485;52.128;4.436;2023-06-14T01:33:17;3.17;;;1.77;;
31920;SDS011;66485;52.128;4.436;2023-06-14T01:35:46;3.00;;;1.95;;
31920;SDS011;66485;52.128;4.436;2023-06-14T01:38:12;2.83;;;1.95;;
31920;SDS011;66485;52.128;4.436;2023-06-14T01:40:39;3.13;;;2.03;;
31920;SDS011;66485;52.128;4.436;2023-06-14T01:43:07;2.60;;;1.70;;
31920;SDS011;66485;52.128;4.436;2023-06-14T01:45:33;2.78;;;1.80;;
31920;SDS011;66485;52.128;4.436;2023-06-14T01:47:59;2.70;;;1.67;;
31920;SDS011;66485;52.128;4.436;2023-06-14T01:50:29;3.90;;;1.95;;
31920;SDS011;66485;52.128;4.436;2023-06-14T01:52:56;2.90;;;1.80;;
31920;SDS011;66485;52.128;4.436;2023-06-14T01:55:21;3.00;;;1.75;;
31920;SDS011;66485;52.128;4.436;2023-06-14T01:57:46;2.65;;;1.70;;
31920;SDS011;66485;52.128;4.436;2023-06-14T02:00:12;3.65;;;2.05;;
31920;SDS011;66485;52.128;4.436;2023-06-14T02:02:39;2.83;;;1.85;;
31920;SDS011;66485;52.128;4.436;2023-06-14T02:05:05;3.17;;;1.95;;
31920;SDS011;66485;52.128;4.436;2023-06-14T02:07:31;3.50;;;2.15;;
31920;SDS011;66485;52.128;4.436;2023-06-14T02:09:56;2.75;;;2.10;;
31920;SDS011;66485;52.128;4.436;2023-06-14T02:12:21;3.70;;;2.07;;
31920;SDS011;66485;52.128;4.436;2023-06-14T02:14:47;2.42;;;1.70;;
31920;SDS011;66485;52.128;4.436;2023-06-14T02:17:13;4.78;;;2.45;;
31920;SDS011;66485;52.128;4.436;2023-06-14T02:19:38;3.30;;;2.03;;
31920;SDS011;66485;52.128;4.436;2023-06-14T02:22:04;3.42;;;1.92;;
31920;SDS011;66485;52.128;4.436;2023-06-14T02:24:29;2.83;;;2.03;;
31920;SDS011;66485;52.128;4.436;2023-06-14T02:26:55;2.17;;;1.57;;
31920;SDS011;66485;52.128;4.436;2023-06-14T02:29:20;2.30;;;1.60;;
31920;SDS011;66485;52.128;4.436;2023-06-14T02:31:46;2.90;;;1.70;;
31920;SDS011;66485;52.128;4.436;2023-06-14T02:34:13;2.83;;;1.73;;
31920;SDS011;66485;52.128;4.436;2023-06-14T02:36:38;2.67;;;1.80;;
31920;SDS011;66485;52.128;4.436;2023-06-14T02:39:06;2.67;;;1.73;;
31920;SDS011;66485;52.128;4.436;2023-06-14T02:41:34;2.75;;;2.00;;
31920;SDS011;66485;52.128;4.436;2023-06-14T02:44:00;2.85;;;1.92;;
31920;SDS011;66485;52.128;4.436;2023-06-14T02:46:25;2.58;;;1.70;;
31920;SDS011;66485;52.128;4.436;2023-06-14T02:48:50;2.63;;;1.70;;
31920;SDS011;66485;52.128;4.436;2023-06-14T02:51:16;2.85;;;1.85;;
31920;SDS011;66485;52.128;4.436;2023-06-14T02:53:41;3.13;;;1.83;;
31920;SDS011;66485;52.128;4.436;2023-06-14T02:56:06;2.63;;;1.70;;
31920;SDS011;66485;52.128;4.436;2023-06-14T02:58:32;2.80;;;1.77;;
31920;SDS011;66485;52.128;4.436;2023-06-14T03:00:58;3.22;;;1.70;;
31920;SDS011;66485;52.128;4.436;2023-06-14T03:03:28;4.32;;;2.00;;
31920;SDS011;66485;52.128;4.436;2023-06-14T03:05:54;2.28;;;1.67;;
31920;SDS011;66485;52.128;4.436;2023-06-14T03:08:20;3.20;;;1.75;;
31920;SDS011;66485;52.128;4.436;2023-06-14T03:10:45;3.25;;;1.70;;
31920;SDS011;66485;52.128;4.436;2023-06-14T03:13:12;2.00;;;1.42;;
31920;SDS011;66485;52.128;4.436;2023-06-14T03:15:38;2.42;;;1.70;;
31920;SDS011;66485;52.128;4.436;2023-06-14T03:18:06;2.80;;;1.88;;
31920;SDS011;66485;52.128;4.436;2023-06-14T03:20:33;3.70;;;2.13;;
31920;SDS011;66485;52.128;4.436;2023-06-14T03:22:59;2.30;;;1.50;;
31920;SDS011;66485;52.128;4.436;2023-06-14T03:25:25;2.83;;;1.83;;
31920;SDS011;66485;52.128;4.436;2023-06-14T03:27:54;2.72;;;1.60;;
31920;SDS011;66485;52.128;4.436;2023-06-14T03:30:20;2.75;;;1.70;;
31920;SDS011;66485;52.128;4.436;2023-06-14T03:32:45;2.22;;;1.67;;
31920;SDS011;66485;52.128;4.436;2023-06-14T03:35:10;2.50;;;1.70;;
31920;SDS011;66485;52.128;4.436;2023-06-14T03:37:41;2.00;;;1.50;;
31920;SDS011;66485;52.128;4.436;2023-06-14T03:40:07;2.70;;;1.80;;
31920;SDS011;66485;52.128;4.436;2023-06-14T03:42:33;2.30;;;1.58;;
31920;SDS011;66485;52.128;4.436;2023-06-14T03:44:59;2.38;;;1.70;;
31920;SDS011;66485;52.128;4.436;2023-06-14T03:47:24;2.23;;;1.50;;
31920;SDS011;66485;52.128;4.436;2023-06-14T03:49:50;2.28;;;1.63;;
31920;SDS011;66485;52.128;4.436;2023-06-14T03:52:15;2.35;;;1.70;;
31920;SDS011;66485;52.128;4.436;2023-06-14T03:54:42;2.90;;;1.83;;
31920;SDS011;66485;52.128;4.436;2023-06-14T03:57:09;2.78;;;1.73;;
31920;SDS011;66485;52.128;4.436;2023-06-14T03:59:35;2.90;;;1.73;;
31920;SDS011;66485;52.128;4.436;2023-06-14T04:02:01;2.42;;;1.65;;
31920;SDS011;66485;52.128;4.436;2023-06-14T04:04:27;2.33;;;1.63;;
31920;SDS011;66485;52.128;4.436;2023-06-14T04:06:57;2.45;;;1.70;;
31920;SDS011;66485;52.128;4.436;2023-06-14T04:09:24;2.53;;;1.60;;
31920;SDS011;66485;52.128;4.436;2023-06-14T04:11:52;3.33;;;1.90;;
31920;SDS011;66485;52.128;4.436;2023-06-14T04:14:18;2.80;;;1.50;;
31920;SDS011;66485;52.128;4.436;2023-06-14T04:16:45;3.05;;;1.60;;
31920;SDS011;66485;52.128;4.436;2023-06-14T04:19:14;2.63;;;1.73;;
31920;SDS011;66485;52.128;4.436;2023-06-14T04:21:40;3.95;;;2.00;;
31920;SDS011;66485;52.128;4.436;2023-06-14T04:24:06;2.33;;;1.48;;
31920;SDS011;66485;52.128;4.436;2023-06-14T04:26:31;2.78;;;1.80;;
31920;SDS011;66485;52.128;4.436;2023-06-14T04:28:58;2.15;;;1.67;;
31920;SDS011;66485;52.128;4.436;2023-06-14T04:31:28;3.42;;;1.77;;
31920;SDS011;66485;52.128;4.436;2023-06-14T04:33:54;2.88;;;1.63;;
31920;SDS011;66485;52.128;4.436;2023-06-14T04:36:20;2.58;;;1.60;;
31920;SDS011;66485;52.128;4.436;2023-06-14T04:38:46;3.95;;;1.67;;
31920;SDS011;66485;52.128;4.436;2023-06-14T04:41:11;3.20;;;1.73;;
31920;SDS011;66485;52.128;4.436;2023-06-14T04:43:37;2.85;;;1.70;;
31920;SDS011;66485;52.128;4.436;2023-06-14T04:46:06;2.08;;;1.52;;
31920;SDS011;66485;52.128;4.436;2023-06-14T04:48:36;4.80;;;1.63;;
31920;SDS011;66485;52.128;4.436;2023-06-14T04:51:02;2.67;;;1.70;;
31920;SDS011;66485;52.128;4.436;2023-06-14T04:53:29;2.50;;;1.65;;
31920;SDS011;66485;52.128;4.436;2023-06-14T04:55:54;2.15;;;1.52;;
31920;SDS011;66485;52.128;4.436;2023-06-14T04:58:19;2.17;;;1.60;;
31920;SDS011;66485;52.128;4.436;2023-06-14T05:00:45;2.47;;;1.65;;
31920;SDS011;66485;52.128;4.436;2023-06-14T05:03:10;3.47;;;1.80;;
31920;SDS011;66485;52.128;4.436;2023-06-14T05:05:38;4.90;;;1.70;;
31920;SDS011;66485;52.128;4.436;2023-06-14T05:08:04;2.60;;;1.60;;
31920;SDS011;66485;52.128;4.436;2023-06-14T05:10:29;4.53;;;1.83;;
31920;SDS011;66485;52.128;4.436;2023-06-14T05:12:55;3.30;;;1.58;;
31920;SDS011;66485;52.128;4.436;2023-06-14T05:15:20;3.30;;;1.60;;
31920;SDS011;66485;52.128;4.436;2023-06-14T05:17:50;2.65;;;1.55;;
31920;SDS011;66485;52.128;4.436;2023-06-14T05:20:20;3.78;;;1.60;;
31920;SDS011;66485;52.128;4.436;2023-06-14T05:22:45;3.10;;;1.60;;
31920;SDS011;66485;52.128;4.436;2023-06-14T05:25:10;2.60;;;1.53;;
31920;SDS011;66485;52.128;4.436;2023-06-14T05:27:36;2.95;;;1.60;;
31920;SDS011;66485;52.128;4.436;2023-06-14T05:30:02;2.88;;;1.70;;
31920;SDS011;66485;52.128;4.436;2023-06-14T05:32:29;2.00;;;1.30;;
31920;SDS011;66485;52.128;4.436;2023-06-14T05:34:55;2.60;;;1.70;;
31920;SDS011;66485;52.128;4.436;2023-06-14T05:37:20;2.63;;;1.60;;
31920;SDS011;66485;52.128;4.436;2023-06-14T05:39:45;4.07;;;1.75;;
31920;SDS011;66485;52.128;4.436;2023-06-14T05:42:11;3.33;;;1.77;;
31920;SDS011;66485;52.128;4.436;2023-06-14T05:44:36;2.33;;;1.40;;
31920;SDS011;66485;52.128;4.436;2023-06-14T05:47:01;4.72;;;1.75;;
31920;SDS011;66485;52.128;4.436;2023-06-14T05:49:27;5.07;;;1.70;;
31920;SDS011;66485;52.128;4.436;2023-06-14T05:51:52;4.67;;;1.50;;
31920;SDS011;66485;52.128;4.436;2023-06-14T05:54:17;2.63;;;1.67;;
31920;SDS011;66485;52.128;4.436;2023-06-14T05:56:43;2.60;;;1.70;;
31920;SDS011;66485;52.128;4.436;2023-06-14T05:59:08;2.17;;;1.50;;
31920;SDS011;66485;52.128;4.436;2023-06-14T06:01:33;3.47;;;1.52;;
31920;SDS011;66485;52.128;4.436;2023-06-14T06:04:01;2.10;;;1.58;;
31920;SDS011;66485;52.128;4.436;2023-06-14T06:06:27;3.10;;;1.90;;
31920;SDS011;66485;52.128;4.436;2023-06-14T06:08:52;2.50;;;1.67;;
31920;SDS011;66485;52.128;4.436;2023-06-14T06:11:17;2.08;;;1.38;;
31920;SDS011;66485;52.128;4.436;2023-06-14T06:13:43;2.78;;;1.50;;
31920;SDS011;66485;52.128;4.436;2023-06-14T06:16:08;2.45;;;1.67;;
31920;SDS011;66485;52.128;4.436;2023-06-14T06:18:33;2.40;;;1.63;;
31920;SDS011;66485;52.128;4.436;2023-06-14T06:20:59;2.40;;;1.50;;
31920;SDS011;66485;52.128;4.436;2023-06-14T06:23:25;2.25;;;1.60;;
31920;SDS011;66485;52.128;4.436;2023-06-14T06:25:50;2.55;;;1.70;;
31920;SDS011;66485;52.128;4.436;2023-06-14T06:28:16;2.33;;;1.63;;
31920;SDS011;66485;52.128;4.436;2023-06-14T06:30:42;1.98;;;1.45;;
31920;SDS011;66485;52.128;4.436;2023-06-14T06:33:07;2.63;;;1.50;;
31920;SDS011;66485;52.128;4.436;2023-06-14T06:35:33;3.17;;;1.42;;
31920;SDS011;66485;52.128;4.436;2023-06-14T06:37:58;2.88;;;1.65;;
31920;SDS011;66485;52.128;4.436;2023-06-14T06:40:25;2.10;;;1.35;;
31920;SDS011;66485;52.128;4.436;2023-06-14T06:42:50;2.60;;;1.57;;
31920;SDS011;66485;52.128;4.436;2023-06-14T06:45:16;2.90;;;1.58;;
31920;SDS011;66485;52.128;4.436;2023-06-14T06:47:41;2.65;;;1.73;;
31920;SDS011;66485;52.128;4.436;2023-06-14T06:50:07;2.40;;;1.30;;
31920;SDS011;66485;52.128;4.436;2023-06-14T06:52:33;2.28;;;1.63;;
31920;SDS011;66485;52.128;4.436;2023-06-14T06:54:58;4.53;;;1.88;;
31920;SDS011;66485;52.128;4.436;2023-06-14T06:57:23;2.00;;;1.35;;
31920;SDS011;66485;52.128;4.436;2023-06-14T06:59:49;2.20;;;1.40;;
31920;SDS011;66485;52.128;4.436;2023-06-14T07:02:14;2.15;;;1.40;;
31920;SDS011;66485;52.128;4.436;2023-06-14T07:04:40;2.28;;;1.55;;
31920;SDS011;66485;52.128;4.436;2023-06-14T07:07:06;5.75;;;1.70;;
31920;SDS011;66485;52.128;4.436;2023-06-14T07:09:31;2.45;;;1.52;;
31920;SDS011;66485;52.128;4.436;2023-06-14T07:11:57;2.50;;;1.53;;
31920;SDS011;66485;52.128;4.436;2023-06-14T07:14:22;3.73;;;1.63;;
31920;SDS011;66485;52.128;4.436;2023-06-14T07:16:48;3.33;;;1.75;;
31920;SDS011;66485;52.128;4.436;2023-06-14T07:19:14;3.03;;;1.85;;
31920;SDS011;66485;52.128;4.436;2023-06-14T07:21:39;3.97;;;1.50;;
31920;SDS011;66485;52.128;4.436;2023-06-14T07:24:05;2.80;;;1.52;;
31920;SDS011;66485;52.128;4.436;2023-06-14T07:26:31;2.95;;;1.70;;
31920;SDS011;66485;52.128;4.436;2023-06-14T07:28:57;2.17;;;1.52;;
31920;SDS011;66485;52.128;4.436;2023-06-14T07:31:22;2.00;;;1.40;;
31920;SDS011;66485;52.128;4.436;2023-06-14T07:33:47;2.80;;;1.63;;
31920;SDS011;66485;52.128;4.436;2023-06-14T07:36:12;2.22;;;1.20;;
31920;SDS011;66485;52.128;4.436;2023-06-14T07:38:38;2.90;;;1.90;;
31920;SDS011;66485;52.128;4.436;2023-06-14T07:41:05;2.40;;;1.52;;
31920;SDS011;66485;52.128;4.436;2023-06-14T07:43:30;5.50;;;1.58;;
31920;SDS011;66485;52.128;4.436;2023-06-14T07:45:56;2.92;;;1.50;;
31920;SDS011;66485;52.128;4.436;2023-06-14T07:48:22;2.58;;;1.63;;
31920;SDS011;66485;52.128;4.436;2023-06-14T07:50:47;2.63;;;1.67;;
31920;SDS011;66485;52.128;4.436;2023-06-14T07:53:13;2.75;;;1.70;;
31920;SDS011;66485;52.128;4.436;2023-06-14T07:55:38;2.67;;;1.70;;
31920;SDS011;66485;52.128;4.436;2023-06-14T07:58:04;3.60;;;1.58;;
31920;SDS011;66485;52.128;4.436;2023-06-14T08:00:31;1.70;;;1.15;;
31920;SDS011;66485;52.128;4.436;2023-06-14T08:02:57;2.70;;;1.65;;
31920;SDS011;66485;52.128;4.436;2023-06-14T08:05:24;2.58;;;1.60;;
31920;SDS011;66485;52.128;4.436;2023-06-14T08:07:50;4.45;;;1.83;;
31920;SDS011;66485;52.128;4.436;2023-06-14T08:10:17;4.63;;;1.50;;
31920;SDS011;66485;52.128;4.436;2023-06-14T08:12:42;10.35;;;1.90;;
31920;SDS011;66485;52.128;4.436;2023-06-14T08:15:08;11.98;;;2.25;;
31920;SDS011;66485;52.128;4.436;2023-06-14T08:17:34;5.50;;;2.03;;
31920;SDS011;66485;52.128;4.436;2023-06-14T08:19:59;5.75;;;2.28;;
31920;SDS011;66485;52.128;4.436;2023-06-14T08:22:25;4.53;;;2.30;;
31920;SDS011;66485;52.128;4.436;2023-06-14T08:24:52;6.60;;;2.08;;
31920;SDS011;66485;52.128;4.436;2023-06-14T08:27:19;5.30;;;1.80;;
31920;SDS011;66485;52.128;4.436;2023-06-14T08:29:45;5.78;;;2.08;;
31920;SDS011;66485;52.128;4.436;2023-06-14T08:32:10;4.47;;;2.00;;
31920;SDS011;66485;52.128;4.436;2023-06-14T08:34:35;4.47;;;2.47;;
31920;SDS011;66485;52.128;4.436;2023-06-14T08:37:00;4.68;;;2.28;;
31920;SDS011;66485;52.128;4.436;2023-06-14T08:39:26;9.77;;;2.45;;
31920;SDS011;66485;52.128;4.436;2023-06-14T08:41:51;7.93;;;2.35;;
31920;SDS011;66485;52.128;4.436;2023-06-14T08:44:17;10.05;;;2.55;;
31920;SDS011;66485;52.128;4.436;2023-06-14T08:46:43;13.23;;;2.67;;
31920;SDS011;66485;52.128;4.436;2023-06-14T08:49:11;7.18;;;2.40;;
31920;SDS011;66485;52.128;4.436;2023-06-14T08:51:37;13.48;;;3.05;;
31920;SDS011;66485;52.128;4.436;2023-06-14T08:54:03;6.82;;;2.45;;
31920;SDS011;66485;52.128;4.436;2023-06-14T08:56:29;8.63;;;2.55;;
31920;SDS011;66485;52.128;4.436;2023-06-14T08:58:58;6.97;;;2.50;;
31920;SDS011;66485;52.128;4.436;2023-06-14T09:01:28;7.65;;;2.40;;
31920;SDS011;66485;52.128;4.436;2023-06-14T09:03:53;5.60;;;2.13;;
31920;SDS011;66485;52.128;4.436;2023-06-14T09:06:22;4.78;;;2.58;;
31920;SDS011;66485;52.128;4.436;2023-06-14T09:08:49;7.20;;;2.30;;
31920;SDS011;66485;52.128;4.436;2023-06-14T09:11:16;4.72;;;2.47;;
31920;SDS011;66485;52.128;4.436;2023-06-14T09:13:44;5.00;;;2.47;;
31920;SDS011;66485;52.128;4.436;2023-06-14T09:16:10;8.57;;;2.40;;
31920;SDS011;66485;52.128;4.436;2023-06-14T09:18:39;8.45;;;3.10;;
31920;SDS011;66485;52.128;4.436;2023-06-14T09:21:13;4.32;;;2.10;;
31920;SDS011;66485;52.128;4.436;2023-06-14T09:23:41;14.13;;;2.95;;
31920;SDS011;66485;52.128;4.436;2023-06-14T09:28:34;12.95;;;2.50;;
31920;SDS011;66485;52.128;4.436;2023-06-14T09:31:00;15.20;;;2.55;;
31920;SDS011;66485;52.128;4.436;2023-06-14T09:33:26;13.43;;;2.78;;
31920;SDS011;66485;52.128;4.436;2023-06-14T09:35:52;8.13;;;2.17;;
31920;SDS011;66485;52.128;4.436;2023-06-14T09:38:19;12.57;;;3.05;;
31920;SDS011;66485;52.128;4.436;2023-06-14T09:40:45;8.43;;;2.88;;
31920;SDS011;66485;52.128;4.436;2023-06-14T09:43:10;14.57;;;3.10;;
31920;SDS011;66485;52.128;4.436;2023-06-14T09:45:36;6.13;;;2.20;;
31920;SDS011;66485;52.128;4.436;2023-06-14T09:48:05;4.47;;;2.13;;
31920;SDS011;66485;52.128;4.436;2023-06-14T09:50:32;14.60;;;2.90;;
31920;SDS011;66485;52.128;4.436;2023-06-14T09:52:58;7.57;;;2.13;;
31920;SDS011;66485;52.128;4.436;2023-06-14T09:55:30;3.35;;;2.22;;
31920;SDS011;66485;52.128;4.436;2023-06-14T09:57:59;7.18;;;2.30;;
31920;SDS011;66485;52.128;4.436;2023-06-14T10:00:25;5.65;;;2.17;;
31920;SDS011;66485;52.128;4.436;2023-06-14T10:02:53;3.78;;;2.05;;
31920;SDS011;66485;52.128;4.436;2023-06-14T10:05:23;10.32;;;2.60;;
31920;SDS011;66485;52.128;4.436;2023-06-14T10:08:04;3.88;;;2.15;;
31920;SDS011;66485;52.128;4.436;2023-06-14T10:10:33;5.53;;;2.10;;
31920;SDS011;66485;52.128;4.436;2023-06-14T10:12:59;5.22;;;2.50;;
31920;SDS011;66485;52.128;4.436;2023-06-14T10:15:34;4.72;;;2.38;;
31920;SDS011;66485;52.128;4.436;2023-06-14T10:18:11;3.63;;;2.03;;
31920;SDS011;66485;52.128;4.436;2023-06-14T10:21:08;5.45;;;2.10;;
31920;SDS011;66485;52.128;4.436;2023-06-14T10:23:42;7.45;;;2.30;;
31920;SDS011;66485;52.128;4.436;2023-06-14T10:26:09;8.65;;;2.28;;
31920;SDS011;66485;52.128;4.436;2023-06-14T10:28:58;4.10;;;1.75;;
31920;SDS011;66485;52.128;4.436;2023-06-14T10:31:42;5.53;;;2.45;;
31920;SDS011;66485;52.128;4.436;2023-06-14T10:34:13;4.90;;;1.98;;
31920;SDS011;66485;52.128;4.436;2023-06-14T10:37:05;4.50;;;2.30;;
31920;SDS011;66485;52.128;4.436;2023-06-14T10:39:39;2.70;;;1.85;;
31920;SDS011;66485;52.128;4.436;2023-06-14T10:42:06;13.23;;;2.50;;
31920;SDS011;66485;52.128;4.436;2023-06-14T10:47:08;4.72;;;2.20;;
31920;SDS011;66485;52.128;4.436;2023-06-14T10:49:56;4.95;;;2.20;;
31920;SDS011;66485;52.128;4.436;2023-06-14T10:52:28;4.80;;;2.20;;
31920;SDS011;66485;52.128;4.436;2023-06-14T10:55:02;3.50;;;2.10;;
31920;SDS011;66485;52.128;4.436;2023-06-14T10:57:31;6.63;;;2.40;;
31920;SDS011;66485;52.128;4.436;2023-06-14T11:00:00;6.30;;;2.50;;
31920;SDS011;66485;52.128;4.436;2023-06-14T11:05:19;5.78;;;2.47;;
31920;SDS011;66485;52.128;4.436;2023-06-14T11:10:38;5.22;;;2.00;;
31920;SDS011;66485;52.128;4.436;2023-06-14T11:13:05;7.85;;;1.98;;
31920;SDS011;66485;52.128;4.436;2023-06-14T11:15:32;7.57;;;2.22;;
31920;SDS011;66485;52.128;4.436;2023-06-14T11:18:04;5.65;;;2.28;;
31920;SDS011;66485;52.128;4.436;2023-06-14T11:20:32;5.07;;;1.95;;
31920;SDS011;66485;52.128;4.436;2023-06-14T11:22:58;7.15;;;1.88;;
31920;SDS011;66485;52.128;4.436;2023-06-14T11:25:24;5.72;;;2.20;;
31920;SDS011;66485;52.128;4.436;2023-06-14T11:27:50;3.30;;;1.85;;
31920;SDS011;66485;52.128;4.436;2023-06-14T11:30:16;6.00;;;1.98;;
31920;SDS011;66485;52.128;4.436;2023-06-14T11:32:42;10.45;;;1.95;;
31920;SDS011;66485;52.128;4.436;2023-06-14T11:35:10;4.22;;;1.80;;
31920;SDS011;66485;52.128;4.436;2023-06-14T11:37:36;10.35;;;2.25;;
31920;SDS011;66485;52.128;4.436;2023-06-14T11:40:03;9.13;;;2.70;;
31920;SDS011;66485;52.128;4.436;2023-06-14T11:42:34;10.50;;;2.47;;
31920;SDS011;66485;52.128;4.436;2023-06-14T11:45:04;4.05;;;2.22;;
31920;SDS011;66485;52.128;4.436;2023-06-14T11:47:32;8.25;;;2.28;;
31920;SDS011;66485;52.128;4.436;2023-06-14T11:50:06;13.18;;;2.10;;
31920;SDS011;66485;52.128;4.436;2023-06-14T11:52:36;4.88;;;2.17;;
31920;SDS011;66485;52.128;4.436;2023-06-14T11:55:02;4.93;;;2.22;;
31920;SDS011;66485;52.128;4.436;2023-06-14T11:57:34;6.40;;;2.13;;
31920;SDS011;66485;52.128;4.436;2023-06-14T12:00:03;8.30;;;2.22;;
31920;SDS011;66485;52.128;4.436;2023-06-14T12:02:32;8.73;;;2.10;;
31920;SDS011;66485;52.128;4.436;2023-06-14T12:05:03;7.10;;;2.10;;
31920;SDS011;66485;52.128;4.436;2023-06-14T12:07:30;8.45;;;1.98;;
31920;SDS011;66485;52.128;4.436;2023-06-14T12:12:21;5.17;;;2.13;;
31920;SDS011;66485;52.128;4.436;2023-06-14T12:14:47;5.18;;;2.20;;
31920;SDS011;66485;52.128;4.436;2023-06-14T12:17:13;8.30;;;2.17;;
31920;SDS011;66485;52.128;4.436;2023-06-14T12:19:42;3.53;;;1.75;;
31920;SDS011;66485;52.128;4.436;2023-06-14T12:22:11;4.75;;;2.17;;
31920;SDS011;66485;52.128;4.436;2023-06-14T12:24:38;5.60;;;2.28;;
31920;SDS011;66485;52.128;4.436;2023-06-14T12:27:04;2.95;;;1.75;;
31920;SDS011;66485;52.128;4.436;2023-06-14T12:29:30;6.60;;;1.80;;
31920;SDS011;66485;52.128;4.436;2023-06-14T12:31:56;5.03;;;1.98;;
31920;SDS011;66485;52.128;4.436;2023-06-14T12:34:25;4.80;;;2.25;;
31920;SDS011;66485;52.128;4.436;2023-06-14T12:36:52;5.22;;;1.95;;
31920;SDS011;66485;52.128;4.436;2023-06-14T12:39:21;6.40;;;1.73;;
31920;SDS011;66485;52.128;4.436;2023-06-14T12:41:46;3.53;;;1.85;;
31920;SDS011;66485;52.128;4.436;2023-06-14T12:44:12;3.95;;;2.22;;
31920;SDS011;66485;52.128;4.436;2023-06-14T12:46:38;4.50;;;2.22;;
31920;SDS011;66485;52.128;4.436;2023-06-14T12:49:04;4.78;;;1.85;;
31920;SDS011;66485;52.128;4.436;2023-06-14T12:51:30;4.88;;;2.08;;
31920;SDS011;66485;52.128;4.436;2023-06-14T12:53:56;2.13;;;1.42;;
31920;SDS011;66485;52.128;4.436;2023-06-14T12:56:21;4.80;;;2.25;;
31920;SDS011;66485;52.128;4.436;2023-06-14T12:58:47;4.10;;;1.73;;
31920;SDS011;66485;52.128;4.436;2023-06-14T13:01:12;3.47;;;1.75;;
31920;SDS011;66485;52.128;4.436;2023-06-14T13:03:37;3.55;;;1.67;;
31920;SDS011;66485;52.128;4.436;2023-06-14T13:06:03;4.87;;;1.93;;
31920;SDS011;66485;52.128;4.436;2023-06-14T13:08:29;3.38;;;1.60;;
31920;SDS011;66485;52.128;4.436;2023-06-14T13:10:55;4.15;;;1.70;;
31920;SDS011;66485;52.128;4.436;2023-06-14T13:13:21;5.57;;;2.63;;
31920;SDS011;66485;52.128;4.436;2023-06-14T13:15:46;3.17;;;1.80;;
31920;SDS011;66485;52.128;4.436;2023-06-14T13:18:12;3.30;;;1.77;;
31920;SDS011;66485;52.128;4.436;2023-06-14T13:20:40;2.33;;;1.50;;
31920;SDS011;66485;52.128;4.436;2023-06-14T13:23:05;4.25;;;1.70;;
31920;SDS011;66485;52.128;4.436;2023-06-14T13:25:32;3.30;;;1.50;;
31920;SDS011;66485;52.128;4.436;2023-06-14T13:28:03;3.33;;;1.90;;
31920;SDS011;66485;52.128;4.436;2023-06-14T13:30:29;2.83;;;1.70;;
31920;SDS011;66485;52.128;4.436;2023-06-14T13:32:55;5.30;;;1.85;;
31920;SDS011;66485;52.128;4.436;2023-06-14T13:35:21;3.92;;;1.55;;
31920;SDS011;66485;52.128;4.436;2023-06-14T13:37:47;2.78;;;1.70;;
31920;SDS011;66485;52.128;4.436;2023-06-14T13:40:12;3.20;;;1.92;;
31920;SDS011;66485;52.128;4.436;2023-06-14T13:42:38;2.65;;;1.50;;
31920;SDS011;66485;52.128;4.436;2023-06-14T13:45:03;5.28;;;1.98;;
31920;SDS011;66485;52.128;4.436;2023-06-14T13:47:30;3.00;;;1.67;;
31920;SDS011;66485;52.128;4.436;2023-06-14T13:49:56;3.40;;;1.90;;
31920;SDS011;66485;52.128;4.436;2023-06-14T13:52:23;4.13;;;1.65;;
31920;SDS011;66485;52.128;4.436;2023-06-14T13:54:48;4.05;;;1.70;;
31920;SDS011;66485;52.128;4.436;2023-06-14T13:57:14;2.47;;;1.48;;
31920;SDS011;66485;52.128;4.436;2023-06-14T13:59:40;3.72;;;1.48;;
31920;SDS011;66485;52.128;4.436;2023-06-14T14:02:06;2.60;;;1.60;;
31920;SDS011;66485;52.128;4.436;2023-06-14T14:04:33;2.83;;;1.58;;
31920;SDS011;66485;52.128;4.436;2023-06-14T14:07:00;3.65;;;1.63;;
31920;SDS011;66485;52.128;4.436;2023-06-14T14:09:25;3.63;;;1.42;;
31920;SDS011;66485;52.128;4.436;2023-06-14T14:11:50;3.25;;;1.63;;
31920;SDS011;66485;52.128;4.436;2023-06-14T14:14:16;1.85;;;1.40;;
31920;SDS011;66485;52.128;4.436;2023-06-14T14:16:41;2.65;;;1.52;;
31920;SDS011;66485;52.128;4.436;2023-06-14T14:19:06;3.45;;;1.50;;
31920;SDS011;66485;52.128;4.436;2023-06-14T14:21:32;2.58;;;1.60;;
31920;SDS011;66485;52.128;4.436;2023-06-14T14:23:58;3.35;;;1.42;;
31920;SDS011;66485;52.128;4.436;2023-06-14T14:26:23;3.60;;;1.30;;
31920;SDS011;66485;52.128;4.436;2023-06-14T14:28:49;3.05;;;1.60;;
31920;SDS011;66485;52.128;4.436;2023-06-14T14:31:15;2.38;;;1.60;;
31920;SDS011;66485;52.128;4.436;2023-06-14T14:33:41;3.38;;;1.58;;
31920;SDS011;66485;52.128;4.436;2023-06-14T14:36:06;2.90;;;1.47;;
31920;SDS011;66485;52.128;4.436;2023-06-14T14:38:32;3.20;;;1.70;;
31920;SDS011;66485;52.128;4.436;2023-06-14T14:40:58;3.03;;;1.40;;
31920;SDS011;66485;52.128;4.436;2023-06-14T14:43:23;5.00;;;1.60;;
31920;SDS011;66485;52.128;4.436;2023-06-14T14:45:48;2.47;;;1.50;;
31920;SDS011;66485;52.128;4.436;2023-06-14T14:48:14;2.30;;;1.50;;
31920;SDS011;66485;52.128;4.436;2023-06-14T14:50:39;2.00;;;1.50;;
31920;SDS011;66485;52.128;4.436;2023-06-14T14:53:05;2.53;;;1.50;;
31920;SDS011;66485;52.128;4.436;2023-06-14T14:55:31;2.78;;;1.45;;
31920;SDS011;66485;52.128;4.436;2023-06-14T14:57:59;3.55;;;1.77;;
31920;SDS011;66485;52.128;4.436;2023-06-14T15:00:25;3.58;;;1.40;;
31920;SDS011;66485;52.128;4.436;2023-06-14T15:02:50;2.00;;;1.20;;
31920;SDS011;66485;52.128;4.436;2023-06-14T15:05:15;3.25;;;1.40;;
31920;SDS011;66485;52.128;4.436;2023-06-14T15:07:41;2.13;;;1.33;;